createdAt,value
2023-04-14T00:01:57.932Z,64.41
2023-04-14T00:04:24.914Z,64.84
2023-04-14T00:06:52.778Z,64.97
2023-04-14T00:09:19.616Z,65.18
2023-04-14T00:11:46.579Z,65.46
2023-04-14T00:14:13.520Z,65.10
2023-04-14T00:16:40.902Z,65.88
2023-04-14T00:19:08.209Z,65.92
2023-04-14T00:21:35.081Z,65.67
2023-04-14T00:24:01.932Z,65.62
2023-04-14T00:26:29.078Z,65.86
2023-04-14T00:28:56.044Z,65.43
2023-04-14T00:31:24.975Z,66.03
2023-04-14T00:33:52.513Z,65.97
2023-04-14T00:36:19.976Z,65.87
2023-04-14T00:38:47.110Z,65.63
2023-04-14T00:41:14.279Z,65.92
2023-04-14T00:43:41.844Z,65.63
2023-04-14T00:46:09.439Z,65.95
2023-04-14T00:48:37.220Z,65.80
2023-04-14T00:51:04.747Z,66.49
2023-04-14T00:53:32.974Z,65.96
2023-04-14T00:56:04.001Z,66.20
2023-04-14T00:58:31.887Z,66.35
2023-04-14T01:00:59.155Z,65.79
2023-04-14T01:03:26.714Z,66.51
2023-04-14T01:05:53.838Z,65.83
2023-04-14T01:08:22.036Z,66.64
2023-04-14T01:11:20.400Z,66.10
2023-04-14T01:14:03.908Z,65.95
2023-04-14T01:16:37.479Z,66.49
2023-04-14T01:19:29.555Z,66.64
2023-04-14T01:22:01.960Z,66.61
2023-04-14T01:25:01.363Z,66.48
2023-04-14T01:28:07.326Z,66.46
2023-04-14T01:30:43.781Z,66.49
2023-04-14T01:33:19.136Z,66.73
2023-04-14T01:35:52.710Z,66.93
2023-04-14T01:38:25.771Z,66.57
2023-04-14T01:40:57.986Z,67.27
2023-04-14T01:43:28.892Z,67.03
2023-04-14T01:46:01.001Z,66.65
2023-04-14T01:48:29.320Z,66.64
2023-04-14T01:50:58.879Z,67.16
2023-04-14T01:53:30.009Z,66.68
2023-04-14T01:55:59.744Z,66.84
2023-04-14T01:58:32.675Z,67.05
2023-04-14T02:01:01.063Z,67.18
2023-04-14T02:03:30.085Z,67.21
2023-04-14T02:05:57.734Z,67.43
2023-04-14T02:08:25.793Z,67.12
2023-04-14T02:10:54.773Z,67.08
2023-04-14T02:13:27.541Z,67.00
2023-04-14T02:15:56.470Z,67.50
2023-04-14T02:18:23.870Z,67.33
2023-04-14T02:20:54.035Z,67.13
2023-04-14T02:23:22.285Z,67.22
2023-04-14T02:26:05.135Z,66.97
2023-04-14T02:28:36.856Z,67.11
2023-04-14T02:31:24.614Z,67.30
2023-04-14T02:33:57.106Z,67.32
2023-04-14T02:36:33.482Z,67.18
2023-04-14T02:39:12.250Z,67.25
2023-04-14T02:41:42.389Z,67.66
2023-04-14T02:44:23.867Z,67.99
2023-04-14T02:47:07.591Z,68.26
2023-04-14T02:49:43.784Z,68.20
2023-04-14T02:52:14.287Z,67.98
2023-04-14T02:54:43.874Z,67.80
2023-04-14T02:57:13.069Z,68.16
2023-04-14T02:59:46.202Z,67.90
2023-04-14T03:02:14.377Z,68.10
2023-04-14T03:04:45.902Z,68.14
2023-04-14T03:07:47.889Z,68.44
2023-04-14T03:10:17.891Z,68.47
2023-04-14T03:12:47.309Z,68.30
2023-04-14T03:15:16.409Z,68.76
2023-04-14T03:17:48.091Z,68.83
2023-04-14T03:20:20.084Z,68.81
2023-04-14T03:22:58.209Z,68.97
2023-04-14T03:25:28.308Z,68.62
2023-04-14T03:28:02.057Z,68.66
2023-04-14T03:30:32.803Z,68.77
2023-04-14T03:33:07.468Z,68.84
2023-04-14T03:35:37.205Z,69.02
2023-04-14T03:38:10.104Z,69.41
2023-04-14T03:40:41.004Z,68.95
2023-04-14T03:43:10.523Z,69.33
2023-04-14T03:45:40.725Z,69.10
2023-04-14T03:48:12.597Z,69.59
2023-04-14T03:50:46.732Z,69.55
2023-04-14T03:53:16.456Z,69.18
2023-04-14T03:55:46.845Z,69.27
2023-04-14T03:58:16.132Z,69.73
2023-04-14T04:00:45.292Z,69.93
2023-04-14T04:03:15.918Z,69.32
2023-04-14T04:05:45.175Z,69.63
2023-04-14T04:08:13.390Z,70.04
2023-04-14T04:10:42.857Z,69.96
2023-04-14T04:13:16.440Z,70.09
2023-04-14T04:15:46.575Z,69.77
2023-04-14T04:18:17.261Z,70.22
2023-04-14T04:20:47.150Z,69.63
2023-04-14T04:23:20.663Z,70.23
2023-04-14T04:25:50.324Z,69.67
2023-04-14T04:28:27.878Z,69.83
2023-04-14T04:30:56.705Z,69.71
2023-04-14T04:33:24.261Z,69.91
2023-04-14T04:35:53.178Z,69.88
2023-04-14T04:38:24.309Z,69.38
2023-04-14T04:40:52.749Z,69.97
2023-04-14T04:43:24.089Z,69.94
2023-04-14T04:46:18.537Z,69.63
2023-04-14T04:48:46.590Z,70.19
2023-04-14T04:51:13.613Z,69.87
2023-04-14T04:53:41.188Z,69.72
2023-04-14T04:56:08.741Z,69.62
2023-04-14T04:58:36.109Z,69.74
2023-04-14T05:01:10.778Z,69.70
2023-04-14T05:03:38.341Z,69.62
2023-04-14T05:06:06.206Z,69.58
2023-04-14T05:08:33.611Z,69.58
2023-04-14T05:11:01.469Z,69.34
2023-04-14T05:13:28.863Z,69.60
2023-04-14T05:16:06.629Z,69.39
2023-04-14T05:18:34.610Z,69.11
2023-04-14T05:21:09.283Z,69.48
2023-04-14T05:23:38.512Z,68.73
2023-04-14T05:26:26.943Z,69.47
2023-04-14T05:28:53.858Z,69.05
2023-04-14T05:31:20.847Z,68.68
2023-04-14T05:33:47.977Z,68.40
2023-04-14T05:36:15.299Z,68.15
2023-04-14T05:38:43.230Z,67.87
2023-04-14T05:41:12.306Z,68.24
2023-04-14T05:43:39.716Z,67.70
2023-04-14T05:46:07.074Z,67.98
2023-04-14T05:48:38.371Z,67.49
2023-04-14T05:51:05.664Z,67.53
2023-04-14T05:53:32.613Z,68.05
2023-04-14T05:55:59.622Z,67.48
2023-04-14T05:58:26.945Z,67.15
2023-04-14T06:00:53.954Z,67.19
2023-04-14T06:03:21.527Z,67.99
2023-04-14T06:05:49.008Z,67.67
2023-04-14T06:08:15.914Z,67.02
2023-04-14T06:10:43.089Z,67.27
2023-04-14T06:13:11.485Z,66.87
2023-04-14T06:15:38.710Z,66.77
2023-04-14T06:18:09.670Z,66.35
2023-04-14T06:20:39.686Z,66.31
2023-04-14T06:23:06.876Z,66.01
2023-04-14T06:25:37.246Z,66.39
2023-04-14T06:28:04.786Z,65.95
2023-04-14T06:30:34.721Z,65.16
2023-04-14T06:33:07.434Z,63.51
2023-04-14T06:35:35.805Z,61.39
2023-04-14T06:38:05.253Z,60.71
2023-04-14T06:40:35.608Z,57.53
2023-04-14T06:43:02.904Z,55.21
2023-04-14T06:45:29.818Z,54.22
2023-04-14T06:47:57.044Z,54.29
2023-04-14T06:50:24.588Z,53.06
2023-04-14T06:52:51.668Z,50.55
2023-04-14T06:55:19.447Z,48.03
2023-04-14T06:57:47.498Z,47.54
2023-04-14T07:00:17.316Z,45.61
2023-04-14T07:02:44.611Z,44.33
2023-04-14T07:05:14.821Z,43.02
2023-04-14T07:07:41.925Z,44.45
2023-04-14T07:10:13.161Z,46.22
2023-04-14T07:12:40.014Z,48.34
2023-04-14T07:15:07.797Z,49.22
2023-04-14T07:17:36.954Z,49.71
2023-04-14T07:20:05.614Z,50.66
2023-04-14T07:22:33.626Z,52.21
2023-04-14T07:25:00.851Z,52.73
2023-04-14T07:27:28.812Z,52.97
2023-04-14T07:29:56.168Z,53.33
2023-04-14T07:32:26.141Z,54.28
2023-04-14T07:34:53.771Z,54.60
2023-04-14T07:37:20.996Z,55.13
2023-04-14T07:39:48.166Z,54.75
2023-04-14T07:42:15.397Z,55.20
2023-04-14T07:44:42.233Z,55.46
2023-04-14T07:47:09.155Z,55.86
2023-04-14T07:49:36.596Z,55.76
2023-04-14T07:52:06.234Z,55.24
2023-04-14T07:54:33.540Z,55.67
2023-04-14T07:57:03.949Z,55.54
2023-04-14T07:59:34.935Z,55.20
2023-04-14T08:02:02.089Z,56.03
2023-04-14T08:04:29.243Z,55.32
2023-04-14T08:06:56.845Z,55.32
2023-04-14T08:09:24.090Z,55.34
2023-04-14T08:11:54.169Z,55.14
2023-04-14T08:14:21.471Z,54.28
2023-04-14T08:16:48.783Z,54.84
2023-04-14T08:19:18.475Z,54.85
2023-04-14T08:21:48.380Z,54.62
2023-04-14T08:24:18.879Z,54.23
2023-04-14T08:26:45.857Z,53.93
2023-04-14T08:29:12.930Z,53.56
2023-04-14T08:31:40.169Z,53.27
2023-04-14T08:34:07.642Z,53.39
2023-04-14T08:36:38.648Z,52.52
2023-04-14T08:39:06.104Z,52.74
2023-04-14T08:41:44.290Z,51.98
2023-04-14T08:44:14.612Z,50.97
2023-04-14T08:46:43.148Z,46.89
2023-04-14T08:49:16.243Z,37.64
2023-04-14T08:51:43.967Z,31.18
2023-04-14T08:54:12.467Z,26.05
2023-04-14T08:56:42.057Z,22.99
2023-04-14T08:59:33.725Z,21.34
2023-04-14T09:02:07.259Z,19.15
2023-04-14T09:04:35.926Z,18.38
2023-04-14T09:07:07.243Z,16.53
2023-04-14T09:09:34.397Z,16.38
2023-04-14T09:12:03.778Z,15.80
2023-04-14T09:14:33.372Z,14.40
2023-04-14T09:17:00.182Z,15.45
2023-04-14T09:19:29.121Z,13.33
2023-04-14T09:21:56.960Z,12.62
2023-04-14T09:24:32.032Z,11.92
2023-04-14T09:27:02.076Z,11.39
2023-04-14T09:29:29.712Z,11.28
2023-04-14T09:31:57.454Z,11.11
2023-04-14T09:34:24.865Z,10.67
2023-04-14T09:37:05.519Z,10.56
2023-04-14T09:39:39.222Z,10.71
2023-04-14T09:42:07.281Z,10.09
2023-04-14T09:44:59.065Z,9.97
2023-04-14T09:47:30.460Z,9.88
2023-04-14T09:49:59.669Z,9.02
2023-04-14T09:52:38.339Z,9.05
2023-04-14T09:55:15.366Z,8.26
2023-04-14T09:57:47.807Z,8.53
2023-04-14T10:00:18.225Z,7.47
2023-04-14T10:03:00.023Z,7.66
2023-04-14T10:05:29.069Z,7.06
2023-04-14T10:08:05.929Z,7.28
2023-04-14T10:10:33.455Z,6.85
2023-04-14T10:13:01.448Z,6.71
2023-04-14T10:15:29.233Z,5.58
2023-04-14T10:17:56.540Z,6.16
2023-04-14T10:20:24.922Z,5.88
2023-04-14T10:22:53.954Z,6.22
2023-04-14T10:25:21.537Z,5.42
2023-04-14T10:27:50.167Z,5.72
2023-04-14T10:30:20.958Z,5.87
2023-04-14T10:32:58.143Z,4.87
2023-04-14T10:35:41.804Z,4.87
2023-04-14T10:38:11.202Z,5.18
2023-04-14T10:40:52.674Z,6.33
2023-04-14T10:43:22.215Z,6.84
2023-04-14T10:45:56.519Z,5.56
2023-04-14T10:48:45.778Z,5.03
2023-04-14T10:51:13.290Z,5.80
2023-04-14T10:53:50.329Z,5.76
2023-04-14T10:56:21.686Z,5.38
2023-04-14T10:58:55.234Z,4.42
2023-04-14T11:01:32.311Z,5.18
2023-04-14T11:04:23.733Z,4.45
2023-04-14T11:06:55.527Z,4.36
2023-04-14T11:10:28.852Z,4.40
2023-04-14T11:14:36.388Z,3.97
2023-04-14T11:46:44.163Z,4.63
2023-04-14T12:05:36.201Z,4.95
2023-04-14T12:51:31.552Z,15.64
2023-04-14T12:57:41.381Z,17.18
2023-04-14T13:01:53.314Z,17.13
2023-04-14T13:17:34.592Z,18.47
2023-04-14T13:26:01.763Z,19.45
2023-04-14T13:49:28.847Z,20.01
2023-04-14T14:00:51.594Z,20.28
2023-04-14T14:34:23.825Z,21.84
2023-04-14T14:54:50.638Z,20.74
2023-04-14T15:19:10.581Z,20.07
2023-04-14T15:22:35.383Z,19.93
2023-04-14T15:30:00.457Z,19.84
2023-04-14T15:33:12.986Z,19.56
2023-04-14T15:36:30.233Z,19.56
2023-04-14T15:43:30.063Z,20.36
2023-04-14T15:46:22.880Z,21.15
2023-04-14T15:58:08.772Z,19.42
2023-04-14T16:05:03.209Z,19.14
2023-04-14T16:08:12.741Z,19.80
2023-04-14T16:10:41.379Z,19.68
2023-04-14T16:13:14.203Z,20.09
2023-04-14T16:15:51.004Z,20.57
2023-04-14T16:18:45.919Z,20.71
2023-04-14T16:21:37.437Z,20.84
2023-04-14T16:24:27.932Z,21.33
2023-04-14T16:27:00.843Z,21.61
2023-04-14T16:32:50.370Z,21.56
2023-04-14T16:35:54.294Z,21.66
2023-04-14T16:38:40.062Z,22.12
2023-04-14T16:41:16.724Z,21.88
2023-04-14T16:43:56.368Z,21.67
2023-04-14T16:46:26.126Z,22.33
2023-04-14T16:48:56.196Z,22.29
2023-04-14T16:51:29.428Z,22.15
2023-04-14T16:54:01.047Z,22.55
2023-04-14T16:56:31.697Z,22.78
2023-04-14T16:59:09.762Z,22.35
2023-04-14T17:01:38.909Z,22.25
2023-04-14T17:04:20.013Z,22.92
2023-04-14T17:07:17.293Z,22.81
2023-04-14T17:09:47.571Z,23.12
2023-04-14T17:12:33.973Z,22.98
2023-04-14T17:15:05.716Z,22.82
2023-04-14T17:17:36.857Z,23.44
2023-04-14T17:20:10.831Z,23.49
2023-04-14T17:22:42.683Z,23.49
2023-04-14T17:25:22.862Z,23.46
2023-04-14T17:28:06.837Z,23.45
2023-04-14T17:31:06.333Z,23.83
2023-04-14T17:34:04.805Z,23.97
2023-04-14T17:37:25.566Z,24.29
2023-04-14T17:40:05.304Z,24.31
2023-04-14T17:43:08.097Z,24.96
2023-04-14T17:45:44.785Z,25.15
2023-04-14T17:48:57.580Z,25.69
2023-04-14T17:51:33.241Z,25.54
2023-04-14T17:54:10.820Z,25.76
2023-04-14T17:57:16.828Z,26.00
2023-04-14T18:00:17.740Z,25.42
2023-04-14T18:03:06.129Z,26.55
2023-04-14T18:05:43.370Z,26.65
2023-04-14T18:11:18.857Z,27.19
2023-04-14T18:14:04.174Z,26.79
2023-04-14T18:17:49.061Z,26.82
2023-04-14T18:20:27.599Z,28.10
2023-04-14T18:23:10.611Z,27.79
2023-04-14T18:28:33.786Z,27.95
2023-04-14T18:31:16.266Z,28.36
2023-04-14T18:33:54.580Z,27.92
2023-04-14T18:36:28.275Z,28.11
2023-04-14T18:38:55.422Z,28.91
2023-04-14T18:41:25.571Z,28.69
2023-04-14T18:43:55.498Z,29.22
2023-04-14T18:46:23.283Z,29.28
2023-04-14T18:48:50.418Z,29.83
2023-04-14T18:51:18.067Z,29.59
2023-04-14T18:53:46.990Z,29.75
2023-04-14T18:56:14.469Z,29.53
2023-04-14T18:58:41.977Z,29.65
2023-04-14T19:01:12.133Z,30.30
2023-04-14T19:03:40.097Z,30.02
2023-04-14T19:06:10.097Z,30.08
2023-04-14T19:08:37.028Z,30.19
2023-04-14T19:11:03.759Z,30.68
2023-04-14T19:13:30.603Z,30.08
2023-04-14T19:16:05.883Z,30.61
2023-04-14T19:18:32.936Z,31.10
2023-04-14T19:20:59.796Z,30.77
2023-04-14T19:23:26.682Z,31.42
2023-04-14T19:25:54.185Z,31.16
2023-04-14T19:28:22.027Z,31.12
2023-04-14T19:30:49.253Z,31.44
2023-04-14T19:33:16.349Z,31.88
2023-04-14T19:35:46.810Z,31.71
2023-04-14T19:38:13.868Z,31.57
2023-04-14T19:40:48.201Z,31.90
2023-04-14T19:43:16.562Z,31.74
2023-04-14T19:45:53.347Z,32.40
2023-04-14T19:48:24.055Z,31.95
2023-04-14T19:50:55.270Z,32.26
2023-04-14T19:53:23.950Z,32.74
2023-04-14T19:55:56.901Z,32.35
2023-04-14T19:58:28.542Z,33.18
2023-04-14T20:00:58.898Z,32.85
2023-04-14T20:03:26.160Z,33.05
2023-04-14T20:05:54.809Z,33.62
2023-04-14T20:08:23.122Z,33.60
2023-04-14T20:10:52.069Z,33.76
2023-04-14T20:13:20.139Z,34.04
2023-04-14T20:15:48.879Z,33.65
2023-04-14T20:18:17.816Z,33.37
2023-04-14T20:20:46.056Z,33.86
2023-04-14T20:23:12.841Z,34.41
2023-04-14T20:25:39.725Z,34.09
2023-04-14T20:28:07.535Z,34.60
2023-04-14T20:30:34.570Z,34.67
2023-04-14T20:33:05.713Z,34.51
2023-04-14T20:35:36.199Z,34.87
2023-04-14T20:38:03.173Z,34.90
2023-04-14T20:40:30.255Z,35.02
2023-04-14T20:42:57.075Z,34.79
2023-04-14T20:45:24.000Z,35.30
2023-04-14T20:47:51.099Z,34.99
2023-04-14T20:50:19.193Z,36.00
2023-04-14T20:52:47.098Z,35.98
2023-04-14T20:55:14.573Z,36.41
2023-04-14T20:57:48.092Z,35.96
2023-04-14T21:00:16.623Z,36.09
2023-04-14T21:02:44.332Z,36.69
2023-04-14T21:05:12.805Z,37.02
2023-04-14T21:07:43.676Z,37.23
2023-04-14T21:10:11.993Z,37.02
2023-04-14T21:12:51.155Z,37.29
2023-04-14T21:15:50.320Z,37.28
2023-04-14T21:18:14.749Z,37.16
2023-04-14T21:20:43.507Z,36.73
2023-04-14T21:23:11.644Z,37.28
2023-04-14T21:25:38.854Z,37.40
2023-04-14T21:28:05.859Z,37.44
2023-04-14T21:30:32.661Z,37.63
2023-04-14T21:33:03.496Z,38.00
2023-04-14T21:35:31.714Z,37.58
2023-04-14T21:37:58.715Z,37.86
2023-04-14T21:40:25.485Z,37.61
2023-04-14T21:42:53.001Z,37.55
2023-04-14T21:45:28.855Z,37.88
2023-04-14T21:47:57.231Z,38.53
2023-04-14T21:50:24.841Z,37.96
2023-04-14T21:52:52.954Z,38.03
2023-04-14T21:55:19.800Z,38.54
2023-04-14T21:57:56.056Z,38.84
2023-04-14T22:00:24.227Z,39.29
2023-04-14T22:02:54.653Z,38.96
2023-04-14T22:05:23.088Z,39.33
2023-04-14T22:07:53.852Z,39.36
2023-04-14T22:10:32.310Z,39.31
2023-04-14T22:13:08.315Z,39.77
2023-04-14T22:15:35.621Z,39.69
2023-04-14T22:18:02.558Z,39.59
2023-04-14T22:20:29.886Z,40.07
2023-04-14T22:22:57.175Z,40.67
2023-04-14T22:25:24.551Z,40.81
2023-04-14T22:27:54.280Z,40.52
2023-04-14T22:30:21.672Z,40.86
2023-04-14T22:32:48.771Z,41.17
2023-04-14T22:35:16.562Z,40.67
2023-04-14T22:37:43.568Z,40.96
2023-04-14T22:40:12.199Z,40.47
2023-04-14T22:42:39.228Z,40.65
2023-04-14T22:45:08.803Z,40.98
2023-04-14T22:47:36.696Z,40.94
2023-04-14T22:50:04.014Z,41.00
2023-04-14T22:52:30.754Z,41.20
2023-04-14T22:54:58.034Z,41.90
2023-04-14T22:57:26.728Z,41.65
2023-04-14T22:59:56.608Z,41.87
2023-04-14T23:02:25.111Z,41.52
2023-04-14T23:04:52.107Z,41.86
2023-04-14T23:07:19.894Z,42.17
2023-04-14T23:09:50.136Z,42.78
2023-04-14T23:12:17.712Z,43.12
2023-04-14T23:14:50.938Z,42.95
2023-04-14T23:17:25.580Z,43.02
2023-04-14T23:20:00.140Z,43.13
2023-04-14T23:22:28.427Z,43.27
2023-04-14T23:24:55.705Z,43.11
2023-04-14T23:27:23.525Z,43.61
2023-04-14T23:29:53.790Z,43.71
2023-04-14T23:32:20.938Z,44.19
2023-04-14T23:34:48.604Z,43.62
2023-04-14T23:37:15.790Z,44.10
2023-04-14T23:39:43.153Z,44.40
2023-04-14T23:42:10.507Z,43.78
2023-04-14T23:44:41.628Z,44.04
2023-04-14T23:47:10.669Z,43.83
2023-04-14T23:49:37.838Z,44.60
2023-04-14T23:52:08.339Z,44.19
2023-04-14T23:54:38.820Z,44.37
2023-04-14T23:57:06.933Z,44.90
2023-04-14T23:59:34.327Z,44.31
